Date,TemperatureHighF,TemperatureAvgF,TemperatureLowF,DewpointHighF,DewpointAvgF,DewpointLowF,HumidityHigh,HumidityAvg,HumidityLow,PressureMaxIn,PressureMinIn,WindSpeedMaxMPH,WindSpeedAvgMPH,GustSpeedMaxMPH,PrecipitationSumIn
2013-5-1,93.6,79.8,68.7,16.7,-7.0,-31.9,12,5,1,29.82,29.62,15,6,0,0.00
2013-5-2,69.6,56.4,46.6,36.2,24.1,7.2,50,30,9,30.26,29.82,23,12,0,0.00
2013-5-3,73.9,55.4,40.5,21.6,11.1,-7.3,44,22,4,30.29,29.85,14,6,0,0.00
2013-5-4,92.7,69.6,48.6,13.2,0.7,-25.4,18,9,1,29.84,29.65,13,4,0,0.00
2013-5-5,88.3,72.4,57.6,21.0,15.9,9.0,19,12,8,29.93,29.71,23,7,0,0.00
2013-5-6,87.1,75.1,63.0,39.0,25.1,14.9,34,17,8,29.86,29.73,14,6,0,0.00
2013-5-7,84.7,72.3,61.5,31.0,23.7,11.9,24,17,7,29.90,29.71,14,7,0,0.00
2013-5-8,86.2,73.7,61.2,29.7,19.1,-5.5,27,14,3,29.88,29.73,17,6,0,0.00
2013-5-9,85.8,74.6,60.6,26.9,13.9,-26.1,24,12,1,29.86,29.73,22,6,0,0.00
2013-5-10,89.2,67.6,54.9,49.3,35.6,22.6,81,35,9,30.03,29.79,21,6,0,0.41
2013-5-11,79.5,58.1,49.8,47.9,44.8,42.2,75,63,32,30.12,30.00,11,6,0,0.22
2013-5-12,80.2,74.3,66.0,42.2,35.9,31.7,38,25,20,30.13,29.94,13,7,0,0.00
2013-5-13,86.0,72.3,56.5,39.8,33.8,28.0,46,26,13,30.12,29.91,12,5,0,0.00
2013-5-14,87.1,72.7,61.2,45.1,40.9,35.4,47,33,16,29.98,29.76,13,5,0,0.00
2013-5-15,94.6,79.0,62.4,43.6,35.9,30.3,42,23,13,29.86,29.66,23,7,0,0.00
2013-5-16,95.9,83.3,68.9,35.2,31.0,26.6,26,16,10,29.84,29.65,18,6,0,0.00
2013-5-17,95.7,81.4,65.5,33.0,29.5,22.6,27,16,10,29.79,29.65,13,4,0,0.00
2013-5-18,91.0,81.2,69.8,34.8,25.9,19.0,20,14,8,29.83,29.63,16,8,0,0.00
2013-5-19,91.0,78.6,66.0,33.4,26.2,20.6,23,15,9,29.80,29.58,21,7,0,0.00
2013-5-20,91.2,80.3,63.3,34.8,28.9,22.5,29,16,9,29.77,29.56,22,7,0,0.00
2013-5-21,91.9,76.2,60.8,34.7,27.0,20.2,31,17,9,29.85,29.67,11,5,0,0.00
2013-5-22,95.0,79.9,60.8,28.0,23.1,17.6,20,13,8,29.77,29.60,13,3,0,0.00
2013-5-23,97.5,82.5,65.1,51.3,32.8,20.3,50,19,10,29.81,29.60,21,5,0,0.00
2013-5-24,99.1,80.6,64.8,51.8,47.7,37.4,60,35,16,29.89,29.70,14,6,0,0.00
2013-5-25,99.7,83.5,70.0,56.5,44.1,26.2,57,31,8,29.87,29.69,11,4,0,0.00
2013-5-26,96.6,83.9,64.0,51.3,34.7,15.4,51,21,8,29.89,29.71,11,5,0,0.00
2013-5-27,96.8,82.6,65.3,27.5,21.3,14.2,17,11,6,29.80,29.62,14,4,0,0.00
2013-5-28,95.4,83.1,68.4,28.2,20.9,13.2,16,10,6,29.65,29.46,21,7,0,0.00
2013-5-29,91.0,80.6,70.9,35.4,28.2,13.5,22,15,8,29.64,29.50,23,9,0,0.00
2013-5-30,95.0,82.9,70.9,43.4,35.6,28.0,26,19,13,29.75,29.59,18,7,0,0.00
2013-5-31,97.5,85.8,68.5,41.0,35.4,27.5,28,17,12,29.79,29.62,16,6,0,0.00